createdAt,value
2018-05-07T00:00:52.530Z,6.79
2018-05-07T00:01:52.767Z,6.76
2018-05-07T00:02:52.495Z,6.82
2018-05-07T00:03:52.757Z,6.82
2018-05-07T00:04:52.734Z,6.85
2018-05-07T00:05:52.954Z,6.79
2018-05-07T00:06:52.716Z,6.8
2018-05-07T00:07:52.695Z,6.76
2018-05-07T00:08:52.424Z,6.72
2018-05-07T00:09:52.690Z,6.72
2018-05-07T00:10:52.718Z,6.65
2018-05-07T00:11:52.657Z,6.6
2018-05-07T00:12:52.152Z,6.61
2018-05-07T00:13:52.823Z,6.67
2018-05-07T00:14:52.664Z,6.68
2018-05-07T00:15:52.651Z,6.6
2018-05-07T00:16:52.643Z,6.54
2018-05-07T00:17:52.620Z,6.61
2018-05-07T00:18:52.623Z,6.54
2018-05-07T00:19:52.289Z,6.54
2018-05-07T00:20:52.290Z,6.55
2018-05-07T00:21:52.580Z,6.57
2018-05-07T00:22:52.607Z,6.54
2018-05-07T00:23:52.238Z,6.46
2018-05-07T00:24:52.226Z,6.49
2018-05-07T00:25:52.529Z,6.47
2018-05-07T00:26:52.612Z,6.51
2018-05-07T00:27:52.207Z,6.47
2018-05-07T00:28:52.183Z,6.42
2018-05-07T00:29:52.477Z,6.47
2018-05-07T00:30:52.478Z,6.44
2018-05-07T00:31:52.458Z,6.42
2018-05-07T00:32:52.180Z,6.39
2018-05-07T00:33:52.331Z,6.37
2018-05-07T00:34:52.612Z,6.4
2018-05-07T00:35:52.313Z,6.26
2018-05-07T00:36:52.214Z,6.21
2018-05-07T00:37:52.245Z,6.36
2018-05-07T00:38:52.527Z,6.29
2018-05-07T00:39:52.530Z,6.28
2018-05-07T00:40:52.783Z,6.33
2018-05-07T00:41:52.179Z,6.28
2018-05-07T00:42:51.920Z,6.26
2018-05-07T00:43:52.463Z,6.33
2018-05-07T00:44:52.129Z,6.29
2018-05-07T00:45:52.459Z,6.2
2018-05-07T00:46:52.135Z,6.17
2018-05-07T00:47:52.425Z,6.21
2018-05-07T00:48:52.145Z,6.09
2018-05-07T00:49:52.075Z,6.24
2018-05-07T00:50:52.131Z,6.2
2018-05-07T00:51:52.067Z,6.13
2018-05-07T00:52:52.120Z,6.15
2018-05-07T00:53:52.376Z,6.17
2018-05-07T00:54:52.038Z,6.17
2018-05-07T00:55:51.989Z,6.06
2018-05-07T00:56:52.091Z,6.09
2018-05-07T00:57:52.123Z,6.06
2018-05-07T00:58:52.114Z,6.06
2018-05-07T00:59:51.834Z,6.21
2018-05-07T01:00:51.811Z,6.09
2018-05-07T01:01:51.817Z,6.13
2018-05-07T01:02:51.797Z,6.06
2018-05-07T01:03:51.803Z,6.17
2018-05-07T01:04:51.786Z,6.07
2018-05-07T01:05:51.781Z,6.03
2018-05-07T01:06:51.506Z,6.05
2018-05-07T01:07:51.995Z,6.17
2018-05-07T01:08:51.985Z,6.06
2018-05-07T01:09:51.982Z,6.15
2018-05-07T01:10:51.690Z,6.17
2018-05-07T01:11:51.679Z,6.09
2018-05-07T01:12:51.906Z,6.09
2018-05-07T01:13:51.672Z,6.05
2018-05-07T01:14:51.908Z,6.02
2018-05-07T01:15:51.890Z,5.99
2018-05-07T01:16:51.875Z,6.05
2018-05-07T01:17:51.874Z,6.03
2018-05-07T01:18:51.836Z,6
2018-05-07T01:19:51.799Z,5.99
2018-05-07T01:20:52.031Z,6.03
2018-05-07T01:21:51.715Z,6.03
2018-05-07T01:22:51.686Z,6.02
2018-05-07T01:23:51.928Z,6
2018-05-07T01:24:51.655Z,5.98
2018-05-07T01:25:51.668Z,5.96
2018-05-07T01:26:51.961Z,5.98
2018-05-07T01:27:51.610Z,5.99
2018-05-07T01:28:51.561Z,5.99
2018-05-07T01:29:51.538Z,5.96
2018-05-07T01:30:51.824Z,5.98
2018-05-07T01:31:51.344Z,5.98
2018-05-07T01:32:51.292Z,5.99
2018-05-07T01:33:51.783Z,6
2018-05-07T01:34:51.506Z,5.89
2018-05-07T01:35:51.768Z,5.91
2018-05-07T01:36:51.812Z,5.89
2018-05-07T01:37:51.445Z,5.88
2018-05-07T01:38:51.764Z,5.91
2018-05-07T01:39:51.503Z,5.91
2018-05-07T01:40:51.699Z,5.84
2018-05-07T01:41:51.769Z,5.92
2018-05-07T01:42:51.047Z,5.85
2018-05-07T01:43:51.559Z,5.98
2018-05-07T01:44:51.758Z,5.96
2018-05-07T01:45:51.447Z,5.99
2018-05-07T01:46:51.774Z,5.87
2018-05-07T01:47:51.720Z,5.89
2018-05-07T01:48:51.985Z,5.96
2018-05-07T01:49:51.712Z,5.88
2018-05-07T01:50:51.673Z,5.88
2018-05-07T01:51:51.013Z,5.95
2018-05-07T01:52:51.657Z,5.85
2018-05-07T01:53:51.607Z,5.96
2018-05-07T01:54:51.655Z,5.91
2018-05-07T01:55:51.597Z,5.98
2018-05-07T01:56:51.619Z,5.89
2018-05-07T01:57:51.303Z,5.95
2018-05-07T01:58:51.585Z,5.92
2018-05-07T01:59:51.601Z,5.89
2018-05-07T02:00:51.804Z,5.91
2018-05-07T02:01:51.236Z,5.89
2018-05-07T02:02:51.597Z,5.91
2018-05-07T02:03:51.254Z,5.89
2018-05-07T02:04:50.968Z,5.88
2018-05-07T02:05:51.339Z,5.92
2018-05-07T02:06:51.396Z,5.88
2018-05-07T02:07:51.397Z,6.02
2018-05-07T02:08:51.393Z,5.91
2018-05-07T02:09:51.341Z,5.91
2018-05-07T02:10:50.965Z,5.88
2018-05-07T02:11:50.943Z,5.99
2018-05-07T02:12:51.236Z,5.88
2018-05-07T02:13:51.307Z,5.92
2018-05-07T02:14:50.627Z,5.95
2018-05-07T02:15:51.308Z,5.92
2018-05-07T02:16:51.160Z,5.95
2018-05-07T02:17:50.856Z,5.96
2018-05-07T02:18:51.141Z,5.92
2018-05-07T02:19:51.146Z,5.99
2018-05-07T02:20:51.019Z,5.98
2018-05-07T02:21:51.090Z,5.98
2018-05-07T02:22:50.513Z,6.02
2018-05-07T02:23:50.761Z,5.99
2018-05-07T02:24:50.492Z,6
2018-05-07T02:25:50.964Z,6.05
2018-05-07T02:26:50.947Z,6.02
2018-05-07T02:27:50.933Z,6.02
2018-05-07T02:28:50.933Z,5.98
2018-05-07T02:29:50.722Z,6.05
2018-05-07T02:30:50.876Z,6.06
2018-05-07T02:31:51.112Z,6.07
2018-05-07T02:32:51.021Z,6.13
2018-05-07T02:33:51.021Z,6.07
2018-05-07T02:34:50.702Z,6.1
2018-05-07T02:35:50.719Z,6.05
2018-05-07T02:36:51.211Z,6.05
2018-05-07T02:37:50.965Z,6.1
2018-05-07T02:38:50.940Z,6.14
2018-05-07T02:39:50.933Z,6.17
2018-05-07T02:40:50.955Z,6.17
2018-05-07T02:41:50.942Z,6.17
2018-05-07T02:42:50.669Z,6.1
2018-05-07T02:43:50.327Z,6.09
2018-05-07T02:44:50.576Z,6.15
2018-05-07T02:45:50.875Z,6.13
2018-05-07T02:46:50.684Z,6.09
2018-05-07T02:47:50.493Z,6.14
2018-05-07T02:48:50.448Z,6.14
2018-05-07T02:49:50.712Z,6.07
2018-05-07T02:50:50.430Z,6.06
2018-05-07T02:51:50.426Z,6.06
2018-05-07T02:52:50.649Z,6.09
2018-05-07T02:53:50.376Z,6.06
2018-05-07T02:54:50.620Z,6.02
2018-05-07T02:55:50.356Z,6.02
2018-05-07T02:56:50.605Z,6.06
2018-05-07T02:57:50.362Z,6.06
2018-05-07T02:58:50.595Z,6.06
2018-05-07T02:59:50.319Z,6.03
2018-05-07T03:00:50.570Z,6.09
2018-05-07T03:01:50.528Z,6.07
2018-05-07T03:02:50.218Z,6.06
2018-05-07T03:03:50.215Z,6.14
2018-05-07T03:04:50.457Z,6.17
2018-05-07T03:05:50.452Z,6.1
2018-05-07T03:06:50.435Z,6.06
2018-05-07T03:07:50.530Z,6.13
2018-05-07T03:08:50.404Z,6.07
2018-05-07T03:09:50.142Z,6.14
2018-05-07T03:10:50.121Z,6.1
2018-05-07T03:11:50.364Z,6.2
2018-05-07T03:12:50.370Z,6.24
2018-05-07T03:13:50.078Z,6.2
2018-05-07T03:14:50.324Z,6.26
2018-05-07T03:15:50.315Z,6.18
2018-05-07T03:16:50.306Z,6.28
2018-05-07T03:17:49.772Z,6.28
2018-05-07T03:18:50.274Z,6.33
2018-05-07T03:19:50.259Z,6.25
2018-05-07T03:20:50.251Z,6.4
2018-05-07T03:21:50.233Z,6.39
2018-05-07T03:22:50.225Z,6.43
2018-05-07T03:23:49.950Z,6.47
2018-05-07T03:24:50.497Z,6.44
2018-05-07T03:25:50.185Z,6.4
2018-05-07T03:26:50.189Z,6.39
2018-05-07T03:27:50.243Z,6.4
2018-05-07T03:28:50.092Z,6.42
2018-05-07T03:29:50.347Z,6.25
2018-05-07T03:30:50.033Z,6.21
2018-05-07T03:31:50.114Z,6.36
2018-05-07T03:32:49.835Z,6.33
2018-05-07T03:33:50.077Z,6.34
2018-05-07T03:34:50.068Z,6.25
2018-05-07T03:35:50.081Z,6.31
2018-05-07T03:36:49.786Z,6.34
2018-05-07T03:37:49.514Z,6.28
2018-05-07T03:38:50.016Z,6.25
2018-05-07T03:39:49.490Z,6.28
2018-05-07T03:40:49.478Z,6.21
2018-05-07T03:41:49.721Z,6.2
2018-05-07T03:42:49.968Z,6.2
2018-05-07T03:43:49.951Z,6.13
2018-05-07T03:44:49.940Z,6.17
2018-05-07T03:45:49.673Z,6.13
2018-05-07T03:46:49.924Z,6.05
2018-05-07T03:47:49.849Z,6.09
2018-05-07T03:48:49.798Z,6.17
2018-05-07T03:49:49.893Z,6.06
2018-05-07T03:50:49.605Z,6.14
2018-05-07T03:51:49.854Z,6.13
2018-05-07T03:52:49.333Z,6.1
2018-05-07T03:53:49.833Z,6.05
2018-05-07T03:54:49.556Z,6.06
2018-05-07T03:55:49.545Z,6.13
2018-05-07T03:56:49.788Z,6.13
2018-05-07T03:57:49.784Z,6.2
2018-05-07T03:58:49.507Z,6.21
2018-05-07T03:59:49.636Z,6.13
2018-05-07T04:00:49.224Z,6.21
2018-05-07T04:01:49.727Z,6.2
2018-05-07T04:02:49.708Z,6.14
2018-05-07T04:03:49.705Z,6.14
2018-05-07T04:04:49.430Z,6.21
2018-05-07T04:05:49.415Z,6.28
2018-05-07T04:06:49.407Z,6.29
2018-05-07T04:07:49.650Z,6.33
2018-05-07T04:08:49.380Z,6.26
2018-05-07T04:09:49.622Z,6.37
2018-05-07T04:10:49.615Z,6.39
2018-05-07T04:11:49.346Z,6.25
2018-05-07T04:12:49.323Z,6.26
2018-05-07T04:13:49.315Z,6.33
2018-05-07T04:14:49.380Z,6.34
2018-05-07T04:15:49.590Z,6.29
2018-05-07T04:16:49.595Z,6.29
2018-05-07T04:17:49.574Z,6.33
2018-05-07T04:18:49.578Z,6.36
2018-05-07T04:19:49.301Z,6.28
2018-05-07T04:20:49.542Z,6.26
2018-05-07T04:21:49.286Z,6.34
2018-05-07T04:22:49.254Z,6.25
2018-05-07T04:23:49.235Z,6.28
2018-05-07T04:24:49.483Z,6.26
2018-05-07T04:25:49.469Z,6.31
2018-05-07T04:26:49.199Z,6.33
2018-05-07T04:27:49.458Z,6.33
2018-05-07T04:28:49.428Z,6.36
2018-05-07T04:29:49.151Z,6.43
2018-05-07T04:30:49.131Z,6.42
2018-05-07T04:31:49.392Z,6.39
2018-05-07T04:32:49.134Z,6.51
2018-05-07T04:33:49.315Z,6.43
2018-05-07T04:34:49.345Z,6.46
2018-05-07T04:35:49.078Z,6.44
2018-05-07T04:36:48.764Z,6.52
2018-05-07T04:37:49.070Z,6.49
2018-05-07T04:38:49.302Z,6.55
2018-05-07T04:39:49.398Z,6.65
2018-05-07T04:40:49.308Z,6.61
2018-05-07T04:41:49.111Z,6.58
2018-05-07T04:42:49.384Z,6.57
2018-05-07T04:43:49.108Z,6.6
2018-05-07T04:44:49.336Z,6.68
2018-05-07T04:45:49.397Z,6.76
2018-05-07T04:46:48.827Z,6.82
2018-05-07T04:47:49.246Z,6.75
2018-05-07T04:48:49.404Z,6.82
2018-05-07T04:49:49.287Z,6.82
2018-05-07T04:50:49.096Z,6.9
2018-05-07T04:51:49.288Z,6.98
2018-05-07T04:52:48.989Z,7.01
2018-05-07T04:53:49.272Z,7.01
2018-05-07T04:54:49.192Z,7.21
2018-05-07T04:55:48.950Z,7.03
2018-05-07T04:56:49.015Z,7.16
2018-05-07T04:57:48.694Z,7.19
2018-05-07T04:58:48.698Z,7.16
2018-05-07T04:59:49.239Z,7.3
2018-05-07T05:00:49.198Z,7.3
2018-05-07T05:01:49.044Z,7.31
2018-05-07T05:02:48.705Z,7.4
2018-05-07T05:03:48.950Z,7.45
2018-05-07T05:04:48.932Z,7.41
2018-05-07T05:05:48.932Z,7.34
2018-05-07T05:06:48.659Z,7.41
2018-05-07T05:07:48.385Z,7.47
2018-05-07T05:08:48.884Z,7.56
2018-05-07T05:09:48.624Z,7.56
2018-05-07T05:10:48.606Z,7.7
2018-05-07T05:11:48.856Z,7.67
2018-05-07T05:12:48.587Z,7.83
2018-05-07T05:13:48.573Z,7.83
2018-05-07T05:14:48.817Z,7.8
2018-05-07T05:15:48.810Z,7.85
2018-05-07T05:16:48.795Z,7.89
2018-05-07T05:17:48.780Z,7.99
2018-05-07T05:18:48.772Z,8.04
2018-05-07T05:19:48.500Z,8.11
2018-05-07T05:20:48.752Z,8.13
2018-05-07T05:21:48.737Z,8.03
2018-05-07T05:22:48.461Z,8.24
2018-05-07T05:23:48.710Z,8.16
2018-05-07T05:24:48.705Z,8.28
2018-05-07T05:25:48.429Z,8.31
2018-05-07T05:26:48.680Z,8.4
2018-05-07T05:27:48.149Z,8.4
2018-05-07T05:28:48.660Z,8.44
2018-05-07T05:29:48.646Z,8.6
2018-05-07T05:30:48.371Z,8.61
2018-05-07T05:31:48.361Z,8.57
2018-05-07T05:32:48.609Z,8.74
2018-05-07T05:33:48.338Z,8.76
2018-05-07T05:34:48.324Z,8.92
2018-05-07T05:35:48.799Z,8.94
2018-05-07T05:36:48.331Z,9
2018-05-07T05:37:48.036Z,9
2018-05-07T05:38:48.283Z,9.05
2018-05-07T05:39:48.530Z,9.21
2018-05-07T05:40:48.523Z,9.29
2018-05-07T05:41:48.509Z,9.3
2018-05-07T05:42:48.507Z,9.42
2018-05-07T05:43:48.814Z,9.45
2018-05-07T05:44:48.230Z,9.55
2018-05-07T05:45:48.207Z,9.53
2018-05-07T05:46:48.199Z,9.59
2018-05-07T05:47:48.446Z,9.64
2018-05-07T05:48:48.175Z,9.66
2018-05-07T05:49:48.429Z,9.57
2018-05-07T05:50:48.153Z,9.59
2018-05-07T05:51:48.408Z,9.71
2018-05-07T05:52:47.874Z,9.75
2018-05-07T05:53:47.869Z,9.71
2018-05-07T05:54:48.113Z,9.67
2018-05-07T05:55:48.100Z,9.75
2018-05-07T05:56:48.353Z,9.8
2018-05-07T05:57:48.340Z,9.84
2018-05-07T05:58:48.351Z,9.95
2018-05-07T05:59:48.316Z,10
2018-05-07T06:00:48.051Z,10.13
2018-05-07T06:01:48.296Z,10.26
2018-05-07T06:02:48.289Z,10.23
2018-05-07T06:03:48.405Z,10.31
2018-05-07T06:04:48.012Z,10.28
2018-05-07T06:05:48.258Z,10.35
2018-05-07T06:06:48.244Z,10.38
2018-05-07T06:07:48.260Z,10.44
2018-05-07T06:08:48.227Z,10.49
2018-05-07T06:09:48.224Z,10.63
2018-05-07T06:10:47.966Z,10.63
2018-05-07T06:11:47.684Z,10.75
2018-05-07T06:12:48.186Z,10.8
2018-05-07T06:13:48.172Z,10.97
2018-05-07T06:14:48.911Z,11
2018-05-07T06:15:48.159Z,11.12
2018-05-07T06:16:48.149Z,11.13
2018-05-07T06:17:48.136Z,11.31
2018-05-07T06:18:48.132Z,11.28
2018-05-07T06:19:48.123Z,11.49
2018-05-07T06:20:47.850Z,11.51
2018-05-07T06:21:47.846Z,11.63
2018-05-07T06:22:48.091Z,11.52
2018-05-07T06:23:48.082Z,11.63
2018-05-07T06:24:47.819Z,11.61
2018-05-07T06:25:47.813Z,11.66
2018-05-07T06:26:47.793Z,11.82
2018-05-07T06:27:47.793Z,11.94
2018-05-07T06:28:47.794Z,11.91
2018-05-07T06:29:47.771Z,12.01
2018-05-07T06:30:48.034Z,12.11
2018-05-07T06:31:47.753Z,12.18
2018-05-07T06:32:48.066Z,12.25
2018-05-07T06:33:47.733Z,12.26
2018-05-07T06:34:47.752Z,12.51
2018-05-07T06:35:47.973Z,12.66
2018-05-07T06:36:47.966Z,12.95
2018-05-07T06:37:47.956Z,13.28
2018-05-07T06:38:47.950Z,13.57
2018-05-07T06:39:47.682Z,13.99
2018-05-07T06:40:47.416Z,14.3
2018-05-07T06:41:47.410Z,14.7
2018-05-07T06:42:47.664Z,15.47
2018-05-07T06:43:47.912Z,16.04
2018-05-07T06:44:47.909Z,16.27
2018-05-07T06:45:48.201Z,16.76
2018-05-07T06:46:47.978Z,17.54
2018-05-07T06:47:47.627Z,18.41
2018-05-07T06:48:47.620Z,18.94
2018-05-07T06:49:47.878Z,19.57
2018-05-07T06:50:47.605Z,20.41
2018-05-07T06:51:47.604Z,21.08
2018-05-07T06:52:47.603Z,21.62
2018-05-07T06:53:47.594Z,22.24
2018-05-07T06:54:47.847Z,22.84
2018-05-07T06:55:47.590Z,23.4
2018-05-07T06:56:47.839Z,23.71
2018-05-07T06:57:47.833Z,24.17
2018-05-07T06:58:47.573Z,24.63
2018-05-07T06:59:47.573Z,25.02
2018-05-07T07:00:48.317Z,25.27
2018-05-07T07:01:47.827Z,25.66
2018-05-07T07:02:48.575Z,25.76
2018-05-07T07:03:47.844Z,25.67
2018-05-07T07:04:47.824Z,26.03
2018-05-07T07:05:47.316Z,26.41
2018-05-07T07:06:47.827Z,26.6
2018-05-07T07:07:47.307Z,26.82
2018-05-07T07:08:47.836Z,26.87
2018-05-07T07:09:47.828Z,26.89
2018-05-07T07:10:47.823Z,27.12
2018-05-07T07:11:47.822Z,27.33
2018-05-07T07:12:47.828Z,27.45
2018-05-07T07:13:47.567Z,27.59
2018-05-07T07:14:47.569Z,27.51
2018-05-07T07:15:47.592Z,27.46
2018-05-07T07:16:47.573Z,27.57
2018-05-07T07:17:47.844Z,27.79
2018-05-07T07:18:47.844Z,27.57
2018-05-07T07:19:47.577Z,27.45
2018-05-07T07:20:47.585Z,27.69
2018-05-07T07:21:47.979Z,27.81
2018-05-07T07:22:47.587Z,27.84
2018-05-07T07:23:47.850Z,27.89
2018-05-07T07:24:47.852Z,27.83
2018-05-07T07:25:47.874Z,27.87
2018-05-07T07:26:47.600Z,28.11
2018-05-07T07:27:47.856Z,27.99
2018-05-07T07:28:47.604Z,27.94
2018-05-07T07:29:47.866Z,28.06
2018-05-07T07:30:47.869Z,28.2
2018-05-07T07:31:47.631Z,28.3
2018-05-07T07:32:47.880Z,28.6
2018-05-07T07:33:48.074Z,28.95
2018-05-07T07:34:47.886Z,28.9
2018-05-07T07:35:47.884Z,28.79
2018-05-07T07:36:47.966Z,28.91
2018-05-07T07:37:47.905Z,29.02
2018-05-07T07:38:47.640Z,29.1
2018-05-07T07:39:47.899Z,29.06
2018-05-07T07:40:47.391Z,29.01
2018-05-07T07:41:47.904Z,29.02
2018-05-07T07:42:47.394Z,29.02
2018-05-07T07:43:47.400Z,28.78
2018-05-07T07:44:47.921Z,28.58
2018-05-07T07:45:47.923Z,28.51
2018-05-07T07:46:47.663Z,28.16
2018-05-07T07:47:47.931Z,27.98
2018-05-07T07:48:47.954Z,27.76
2018-05-07T07:49:47.931Z,27.49
2018-05-07T07:50:47.936Z,27.31
2018-05-07T07:51:47.938Z,27.04
2018-05-07T07:52:47.933Z,26.75
2018-05-07T07:53:47.700Z,26.31
2018-05-07T07:54:47.425Z,25.62
2018-05-07T07:55:48.012Z,25.05
2018-05-07T07:56:47.686Z,24.32
2018-05-07T07:57:47.944Z,23.84
2018-05-07T07:58:47.950Z,23.42
2018-05-07T07:59:47.450Z,22.97
2018-05-07T08:00:47.693Z,22.42
2018-05-07T08:01:48.039Z,21.97
2018-05-07T08:02:47.693Z,21.71
2018-05-07T08:03:47.691Z,21.48
2018-05-07T08:04:48.032Z,21.28
2018-05-07T08:05:47.955Z,21.09
2018-05-07T08:06:47.949Z,20.83
2018-05-07T08:07:47.950Z,20.58
2018-05-07T08:08:47.450Z,20.56
2018-05-07T08:09:47.948Z,20.4
2018-05-07T08:10:47.950Z,20.4
2018-05-07T08:11:47.694Z,20.23
2018-05-07T08:12:47.988Z,20.01
2018-05-07T08:13:47.963Z,19.98
2018-05-07T08:14:47.429Z,19.95
2018-05-07T08:15:47.694Z,19.8
2018-05-07T08:16:47.950Z,19.68
2018-05-07T08:17:47.686Z,19.5
2018-05-07T08:18:47.685Z,19.49
2018-05-07T08:19:47.942Z,19.46
2018-05-07T08:20:47.688Z,19.43
2018-05-07T08:21:47.934Z,19.52
2018-05-07T08:22:47.945Z,19.5
2018-05-07T08:23:47.420Z,19.49
2018-05-07T08:24:47.786Z,19.57
2018-05-07T08:25:47.934Z,19.53
2018-05-07T08:26:47.418Z,19.61
2018-05-07T08:27:47.942Z,19.57
2018-05-07T08:28:47.671Z,19.68
2018-05-07T08:29:47.940Z,19.7
2018-05-07T08:30:47.669Z,19.6
2018-05-07T08:31:47.929Z,19.67
2018-05-07T08:32:47.924Z,19.6
2018-05-07T08:33:47.921Z,19.56
2018-05-07T08:34:47.661Z,19.65
2018-05-07T08:35:47.915Z,19.72
2018-05-07T08:36:47.818Z,19.86
2018-05-07T08:37:47.913Z,19.95
2018-05-07T08:38:47.657Z,19.93
2018-05-07T08:39:47.913Z,19.97
2018-05-07T08:40:47.916Z,20.01
2018-05-07T08:41:47.907Z,20.05
2018-05-07T08:42:47.649Z,19.98
2018-05-07T08:43:47.647Z,20
2018-05-07T08:44:47.647Z,20.02
2018-05-07T08:45:47.646Z,20.05
2018-05-07T08:46:47.640Z,20.02
2018-05-07T08:47:47.638Z,20.01
2018-05-07T08:48:47.905Z,19.92
2018-05-07T08:49:47.634Z,19.85
2018-05-07T08:50:48.062Z,19.78
2018-05-07T08:51:47.893Z,19.8
2018-05-07T08:52:47.791Z,19.8
2018-05-07T08:53:47.639Z,19.89
2018-05-07T08:54:47.884Z,19.98
2018-05-07T08:55:47.909Z,19.89
2018-05-07T08:56:47.884Z,19.79
2018-05-07T08:57:47.883Z,19.75
2018-05-07T08:58:47.886Z,19.72
2018-05-07T08:59:47.616Z,19.79
2018-05-07T09:00:47.877Z,19.65
2018-05-07T09:01:47.873Z,19.82
2018-05-07T09:02:47.610Z,19.74
2018-05-07T09:03:47.874Z,19.79
2018-05-07T09:04:47.811Z,19.83
2018-05-07T09:05:47.603Z,19.89
2018-05-07T09:06:47.859Z,19.97
2018-05-07T09:07:47.601Z,20.01
2018-05-07T09:08:47.854Z,20.04
2018-05-07T09:09:47.874Z,20.16
2018-05-07T09:10:47.858Z,20.29
2018-05-07T09:11:47.861Z,20.25
2018-05-07T09:12:47.866Z,20.27
2018-05-07T09:13:48.096Z,20.38
2018-05-07T09:14:47.846Z,20.35
2018-05-07T09:15:47.839Z,20.38
2018-05-07T09:16:47.591Z,20.49
2018-05-07T09:17:47.847Z,20.46
2018-05-07T09:18:48.055Z,20.44
2018-05-07T09:19:47.833Z,20.53
2018-05-07T09:20:47.836Z,20.56
2018-05-07T09:21:47.836Z,20.71
2018-05-07T09:22:47.576Z,20.74
2018-05-07T09:23:47.569Z,20.72
2018-05-07T09:24:48.079Z,20.67
2018-05-07T09:25:47.827Z,20.57
2018-05-07T09:26:47.312Z,20.66
2018-05-07T09:27:47.565Z,20.63
2018-05-07T09:28:47.823Z,20.57
2018-05-07T09:29:47.822Z,20.67
2018-05-07T09:30:47.821Z,20.76
2018-05-07T09:31:47.571Z,20.75
2018-05-07T09:32:47.815Z,20.81
2018-05-07T09:33:47.815Z,20.82
2018-05-07T09:34:47.813Z,20.81
2018-05-07T09:35:47.811Z,20.98
2018-05-07T09:36:47.810Z,20.97
2018-05-07T09:37:47.555Z,21.04
2018-05-07T09:38:47.801Z,21.12
2018-05-07T09:39:47.799Z,21.19
2018-05-07T09:40:47.547Z,21.09
2018-05-07T09:41:47.800Z,21.06
2018-05-07T09:42:47.786Z,21.08
2018-05-07T09:43:47.540Z,21.06
2018-05-07T09:44:47.795Z,21
2018-05-07T09:45:47.792Z,20.83
2018-05-07T09:46:47.798Z,20.85
2018-05-07T09:47:47.274Z,20.94
2018-05-07T09:48:47.537Z,21
2018-05-07T09:49:47.530Z,20.96
2018-05-07T09:50:47.858Z,21.08
2018-05-07T09:51:47.530Z,21
2018-05-07T09:52:47.786Z,21.09
2018-05-07T09:53:47.778Z,21.16
2018-05-07T09:54:47.786Z,21.27
2018-05-07T09:55:47.886Z,21.22
2018-05-07T09:56:48.154Z,21.38
2018-05-07T09:57:47.519Z,21.34
2018-05-07T09:58:47.515Z,21.45
2018-05-07T09:59:47.777Z,21.38
2018-05-07T10:00:47.255Z,21.48
2018-05-07T10:01:47.511Z,21.55
2018-05-07T10:02:47.770Z,21.43
2018-05-07T10:03:47.788Z,21.38
2018-05-07T10:04:47.508Z,21.36
2018-05-07T10:05:47.771Z,21.27
2018-05-07T10:06:47.762Z,21.27
2018-05-07T10:07:47.762Z,21.19
2018-05-07T10:08:47.771Z,21.19
2018-05-07T10:09:47.769Z,21.21
2018-05-07T10:10:47.759Z,21.28
2018-05-07T10:11:47.756Z,21.25
2018-05-07T10:12:47.777Z,21.21
2018-05-07T10:13:47.760Z,21.27
2018-05-07T10:14:47.801Z,21.22
2018-05-07T10:15:47.753Z,21.28
2018-05-07T10:16:47.760Z,21.41
2018-05-07T10:17:47.758Z,21.34
2018-05-07T10:18:47.766Z,21.4
2018-05-07T10:19:47.511Z,21.41
2018-05-07T10:20:47.748Z,21.48
2018-05-07T10:21:47.748Z,21.51
2018-05-07T10:22:47.496Z,21.62
2018-05-07T10:23:47.751Z,21.52
2018-05-07T10:24:47.756Z,21.45
2018-05-07T10:25:47.482Z,21.49
2018-05-07T10:26:47.742Z,21.4
2018-05-07T10:27:47.483Z,21.4
2018-05-07T10:28:47.225Z,21.38
2018-05-07T10:29:47.888Z,21.38
2018-05-07T10:30:47.753Z,21.37
2018-05-07T10:31:47.481Z,21.4
2018-05-07T10:32:47.484Z,21.38
2018-05-07T10:33:47.527Z,21.38
2018-05-07T10:34:47.734Z,21.45
2018-05-07T10:35:47.735Z,21.49
2018-05-07T10:36:47.579Z,21.48
2018-05-07T10:37:47.748Z,21.55
2018-05-07T10:38:47.732Z,21.55
2018-05-07T10:39:47.743Z,21.64
2018-05-07T10:40:47.473Z,21.7
2018-05-07T10:41:47.728Z,21.7
2018-05-07T10:42:48.059Z,21.77
2018-05-07T10:43:47.728Z,21.71
2018-05-07T10:44:47.722Z,21.71
2018-05-07T10:45:47.745Z,21.66
2018-05-07T10:46:47.726Z,21.61
2018-05-07T10:47:47.728Z,21.51
2018-05-07T10:48:47.745Z,21.62
2018-05-07T10:49:47.465Z,21.68
2018-05-07T10:50:47.717Z,21.74
2018-05-07T10:51:47.722Z,21.74
2018-05-07T10:52:47.476Z,21.77
2018-05-07T10:53:47.716Z,21.96
2018-05-07T10:54:47.723Z,21.99
2018-05-07T10:55:47.716Z,21.96
2018-05-07T10:56:47.717Z,21.85
2018-05-07T10:57:47.720Z,21.77
2018-05-07T10:58:47.714Z,21.77
2018-05-07T10:59:47.860Z,21.78
2018-05-07T11:00:47.716Z,21.78
2018-05-07T11:01:47.452Z,21.83
2018-05-07T11:02:47.194Z,21.76
2018-05-07T11:03:47.193Z,21.71
2018-05-07T11:04:47.450Z,21.71
2018-05-07T11:05:47.730Z,21.78
2018-05-07T11:06:47.449Z,21.86
2018-05-07T11:07:47.716Z,21.86
2018-05-07T11:08:47.730Z,21.94
2018-05-07T11:09:47.467Z,21.93
2018-05-07T11:10:47.452Z,21.94
2018-05-07T11:11:47.713Z,22.02
2018-05-07T11:12:47.511Z,22.04
2018-05-07T11:13:47.708Z,21.9
2018-05-07T11:14:47.868Z,22.02
2018-05-07T11:15:47.442Z,22.08
2018-05-07T11:16:47.442Z,22.14
2018-05-07T11:17:47.440Z,22.26
2018-05-07T11:18:47.505Z,22.29
2018-05-07T11:19:47.663Z,22.34
2018-05-07T11:20:47.715Z,22.38
2018-05-07T11:21:47.697Z,22.38
2018-05-07T11:22:47.695Z,22.38
2018-05-07T11:23:47.485Z,22.42
2018-05-07T11:24:47.746Z,22.42
2018-05-07T11:25:47.179Z,22.34
2018-05-07T11:26:47.528Z,22.41
2018-05-07T11:27:47.432Z,22.3
2018-05-07T11:28:47.747Z,22.27
2018-05-07T11:29:47.746Z,22.34
2018-05-07T11:30:47.722Z,22.29
2018-05-07T11:31:47.435Z,22.45
2018-05-07T11:32:47.690Z,22.42
2018-05-07T11:33:47.699Z,22.42
2018-05-07T11:34:47.713Z,22.42
2018-05-07T11:35:47.437Z,22.42
2018-05-07T11:36:47.757Z,22.38
2018-05-07T11:37:47.432Z,22.33
2018-05-07T11:38:47.693Z,22.34
2018-05-07T11:39:47.433Z,22.41
2018-05-07T11:40:47.692Z,22.41
2018-05-07T11:41:47.173Z,22.27
2018-05-07T11:42:47.743Z,22.29
2018-05-07T11:43:47.433Z,22.3
2018-05-07T11:44:47.693Z,22.38
2018-05-07T11:45:47.684Z,22.34
2018-05-07T11:46:47.695Z,22.33
2018-05-07T11:47:47.689Z,22.39
2018-05-07T11:48:47.689Z,22.33
2018-05-07T11:49:47.687Z,22.39
2018-05-07T11:50:47.436Z,22.39
2018-05-07T11:51:47.430Z,22.31
2018-05-07T11:52:47.434Z,22.33
2018-05-07T11:53:47.691Z,22.41
2018-05-07T11:54:47.689Z,22.39
2018-05-07T11:55:47.689Z,22.42
2018-05-07T11:56:47.699Z,22.46
2018-05-07T11:57:47.690Z,22.39
2018-05-07T11:58:47.694Z,22.44
2018-05-07T11:59:47.684Z,22.41
2018-05-07T12:00:47.425Z,22.45
2018-05-07T12:01:47.693Z,22.46
2018-05-07T12:02:47.949Z,22.54
2018-05-07T12:03:47.439Z,22.57
2018-05-07T12:04:47.167Z,22.6
2018-05-07T12:05:47.683Z,22.75
2018-05-07T12:06:47.431Z,22.76
2018-05-07T12:07:47.685Z,22.76
2018-05-07T12:08:47.423Z,22.76
2018-05-07T12:09:47.682Z,22.69
2018-05-07T12:10:47.174Z,22.6
2018-05-07T12:11:47.720Z,22.67
2018-05-07T12:12:47.690Z,22.61
2018-05-07T12:13:47.683Z,22.57
2018-05-07T12:14:47.217Z,22.6
2018-05-07T12:15:47.175Z,22.54
2018-05-07T12:16:47.428Z,22.54
2018-05-07T12:17:47.689Z,22.57
2018-05-07T12:18:47.690Z,22.48
2018-05-07T12:19:47.687Z,22.52
2018-05-07T12:20:47.802Z,22.51
2018-05-07T12:21:47.695Z,22.51
2018-05-07T12:22:47.687Z,22.49
2018-05-07T12:23:47.684Z,22.52
2018-05-07T12:24:47.682Z,22.57
2018-05-07T12:25:47.697Z,22.54
2018-05-07T12:26:47.686Z,22.6
2018-05-07T12:27:47.681Z,22.54
2018-05-07T12:28:47.427Z,22.6
2018-05-07T12:29:47.689Z,22.67
2018-05-07T12:30:47.427Z,22.63
2018-05-07T12:31:48.357Z,22.67
2018-05-07T12:32:47.687Z,22.73
2018-05-07T12:33:47.689Z,22.7
2018-05-07T12:34:47.686Z,22.66
2018-05-07T12:35:47.430Z,22.64
2018-05-07T12:36:47.430Z,22.63
2018-05-07T12:37:47.518Z,22.64
2018-05-07T12:38:47.429Z,22.71
2018-05-07T12:39:47.431Z,22.81
2018-05-07T12:40:47.682Z,22.73
2018-05-07T12:41:47.687Z,22.59
2018-05-07T12:42:47.168Z,22.54
2018-05-07T12:43:47.684Z,22.66
2018-05-07T12:44:47.686Z,22.63
2018-05-07T12:45:47.907Z,22.64
2018-05-07T12:46:47.581Z,22.73
2018-05-07T12:47:47.430Z,22.71
2018-05-07T12:48:47.427Z,22.7
2018-05-07T12:49:47.692Z,22.78
2018-05-07T12:50:47.687Z,22.69
2018-05-07T12:51:47.442Z,22.73
2018-05-07T12:52:47.529Z,22.76
2018-05-07T12:53:47.690Z,22.79
2018-05-07T12:54:47.689Z,22.88
2018-05-07T12:55:47.427Z,22.84
2018-05-07T12:56:47.691Z,22.89
2018-05-07T12:57:47.428Z,22.92
2018-05-07T12:58:47.692Z,23.01
2018-05-07T12:59:47.428Z,22.92
2018-05-07T13:00:47.696Z,23.01
2018-05-07T13:01:47.431Z,22.94
2018-05-07T13:02:47.687Z,22.94
2018-05-07T13:03:47.428Z,22.99
2018-05-07T13:04:47.688Z,22.86
2018-05-07T13:05:47.541Z,22.96
2018-05-07T13:06:47.433Z,22.91
2018-05-07T13:07:47.443Z,22.92